Bethany, Canada
Current Conditions -  °F | °C
As of 4:26 AM on Saturday 29 Nov 2014 (Local Time) from CYPQ Reporting Station
Overcast Overcast  
Wind Chill: 25°   Ceiling: 2700
Heat Index: 25°   Visibility: 9mi
Dew Point: 19°   Wind: 3mph
Humidity: 80%   Direction: 130°SE
Pressure: 30.15"   Gusts: NA
Location:  44.18°N, 78.57°W
Report Text: CYPQ 290926Z AUTO 13003KT 9SM OVC027 M04/M07 A3015 RMK SLP220
Loading
Personal Weather Stations






























Interactive Weather Map New forecast layout! Learn more

10-Day Weather Forecast

Advertisements
Track Severe Weather on mobile